createdAt,value
2018-06-15T00:01:20.879Z,0.00
2018-06-15T00:04:12.317Z,0.00
2018-06-15T00:05:12.229Z,0.00
2018-06-15T00:06:12.149Z,0.00
2018-06-15T00:08:29.112Z,0.00
2018-06-15T00:09:28.813Z,0.00
2018-06-15T00:10:28.843Z,0.00
2018-06-15T00:11:30.128Z,0.00
2018-06-15T00:12:37.763Z,0.00
2018-06-15T00:13:28.804Z,0.00
2018-06-15T00:14:28.786Z,0.00
2018-06-15T00:15:29.296Z,0.00
2018-06-15T00:17:45.745Z,0.00
2018-06-15T00:18:45.584Z,0.00
2018-06-15T00:19:45.678Z,0.00
2018-06-15T00:20:45.710Z,0.00
2018-06-15T00:21:45.605Z,0.00
2018-06-15T00:22:45.466Z,0.00
2018-06-15T00:25:12.939Z,0.00
2018-06-15T00:26:12.758Z,0.00
2018-06-15T00:27:13.100Z,0.00
2018-06-15T00:28:12.598Z,0.00
2018-06-15T00:29:12.589Z,0.00
2018-06-15T00:30:13.217Z,0.00
2018-06-15T00:31:15.390Z,0.00
2018-06-15T00:32:12.591Z,0.00
2018-06-15T00:33:12.557Z,0.00
2018-06-15T00:34:12.543Z,0.00
2018-06-15T00:35:12.520Z,0.00
2018-06-15T00:36:12.546Z,0.00
2018-06-15T00:37:12.493Z,0.00
2018-06-15T00:38:12.875Z,0.00
2018-06-15T00:39:25.558Z,0.00
2018-06-15T00:40:13.304Z,0.00
2018-06-15T00:41:31.170Z,0.00
2018-06-15T00:42:12.568Z,0.00
2018-06-15T00:43:12.606Z,0.00
2018-06-15T00:44:25.628Z,0.00
2018-06-15T00:45:12.399Z,0.00
2018-06-15T00:46:12.395Z,0.00
2018-06-15T00:47:12.515Z,0.00
2018-06-15T00:48:12.404Z,0.00
2018-06-15T00:50:53.346Z,0.00
2018-06-15T00:51:53.261Z,0.00
2018-06-15T00:52:53.369Z,0.00
2018-06-15T00:53:52.934Z,0.00
2018-06-15T00:54:52.997Z,0.00
2018-06-15T00:55:52.943Z,0.00
2018-06-15T00:56:52.908Z,0.00
2018-06-15T00:57:54.089Z,0.00
2018-06-15T00:58:52.911Z,0.00
2018-06-15T00:59:52.901Z,0.00
2018-06-15T01:00:53.267Z,0.00
2018-06-15T01:03:04.687Z,0.00
2018-06-15T01:04:04.621Z,0.00
2018-06-15T01:06:15.111Z,0.00
2018-06-15T01:07:16.779Z,0.00
2018-06-15T01:08:15.075Z,0.00
2018-06-15T01:09:14.975Z,0.00
2018-06-15T01:12:45.338Z,0.00
2018-06-15T01:15:05.142Z,0.00
2018-06-15T01:17:14.846Z,0.00
2018-06-15T01:18:14.780Z,0.00
2018-06-15T01:19:14.751Z,0.00
2018-06-15T01:22:28.421Z,0.00
2018-06-15T01:24:50.053Z,0.00
2018-06-15T01:25:50.012Z,0.00
2018-06-15T01:26:50.361Z,0.00
2018-06-15T01:27:49.919Z,0.00
2018-06-15T01:28:50.819Z,0.00
2018-06-15T01:29:50.904Z,0.00
2018-06-15T01:30:49.851Z,0.00
2018-06-15T01:31:49.848Z,0.00
2018-06-15T01:32:59.585Z,0.00
2018-06-15T01:33:50.041Z,0.00
2018-06-15T01:34:49.925Z,0.00
2018-06-15T01:35:50.054Z,0.00
2018-06-15T01:36:49.796Z,0.00
2018-06-15T01:37:49.802Z,0.00
2018-06-15T01:38:52.107Z,0.00
2018-06-15T01:39:49.937Z,0.00
2018-06-15T01:41:46.281Z,0.00
2018-06-15T01:42:45.972Z,0.00
2018-06-15T01:43:46.129Z,0.00
2018-06-15T01:46:03.365Z,0.00
2018-06-15T01:47:03.192Z,0.00
2018-06-15T01:48:03.124Z,0.00
2018-06-15T01:49:03.245Z,0.00
2018-06-15T01:50:03.173Z,0.00
2018-06-15T01:51:03.032Z,0.00
2018-06-15T01:52:03.006Z,0.00
2018-06-15T01:53:03.419Z,0.00
2018-06-15T01:55:26.780Z,0.00
2018-06-15T01:56:26.658Z,0.00
2018-06-15T01:57:26.784Z,0.00
2018-06-15T01:58:26.589Z,0.00
2018-06-15T01:59:37.035Z,0.00
2018-06-15T02:01:44.274Z,0.00
2018-06-15T02:02:52.925Z,0.00
2018-06-15T02:03:53.067Z,0.00
2018-06-15T02:05:55.699Z,0.00
2018-06-15T02:06:55.768Z,0.00
2018-06-15T02:09:07.267Z,0.00
2018-06-15T02:10:07.322Z,0.00
2018-06-15T02:12:23.758Z,0.00
2018-06-15T02:15:25.121Z,0.00
2018-06-15T02:17:37.458Z,0.00
2018-06-15T02:18:35.633Z,0.00
2018-06-15T02:19:35.699Z,0.00
2018-06-15T02:20:35.503Z,0.00
2018-06-15T02:21:35.783Z,0.00
2018-06-15T02:22:36.703Z,0.00
2018-06-15T02:23:35.688Z,0.00
2018-06-15T02:24:43.186Z,0.00
2018-06-15T02:25:36.245Z,0.00
2018-06-15T02:26:35.476Z,0.00
2018-06-15T02:27:35.665Z,0.00
2018-06-15T02:28:46.141Z,0.00
2018-06-15T02:29:43.113Z,0.00
2018-06-15T02:30:35.532Z,0.00
2018-06-15T02:31:35.751Z,0.00
2018-06-15T02:32:43.508Z,0.00
2018-06-15T02:33:35.459Z,0.00
2018-06-15T02:35:46.219Z,4.00
2018-06-15T02:36:45.787Z,4.00
2018-06-15T02:37:45.753Z,4.00
2018-06-15T02:38:45.630Z,4.00
2018-06-15T02:39:56.157Z,4.00
2018-06-15T02:40:45.689Z,8.00
2018-06-15T02:41:45.726Z,4.00
2018-06-15T02:43:39.937Z,8.00
2018-06-15T02:44:39.328Z,8.00
2018-06-15T02:45:47.574Z,12.00
2018-06-15T02:46:39.551Z,12.00
2018-06-15T02:47:52.415Z,12.00
2018-06-15T02:49:56.169Z,12.00
2018-06-15T02:50:56.006Z,16.00
2018-06-15T02:52:03.759Z,16.00
2018-06-15T02:52:56.164Z,20.00
2018-06-15T02:55:07.145Z,20.00
2018-06-15T02:56:07.367Z,20.00
2018-06-15T02:58:23.986Z,32.00
2018-06-15T02:59:23.942Z,36.00
2018-06-15T03:00:23.856Z,40.00
2018-06-15T03:01:23.690Z,44.00
2018-06-15T03:02:23.682Z,52.00
2018-06-15T03:05:39.192Z,60.00
2018-06-15T03:06:38.802Z,72.00
2018-06-15T03:07:46.425Z,88.00
2018-06-15T03:08:38.876Z,100.00
2018-06-15T03:09:38.839Z,116.00
2018-06-15T03:10:38.681Z,124.00
2018-06-15T03:11:38.714Z,132.00
2018-06-15T03:13:55.254Z,148.00
2018-06-15T03:16:06.099Z,156.00
2018-06-15T03:18:16.412Z,188.00
2018-06-15T03:20:27.824Z,204.00
2018-06-15T03:22:36.946Z,232.00
2018-06-15T03:23:36.925Z,248.00
2018-06-15T03:24:37.136Z,256.00
2018-06-15T03:25:37.861Z,256.00
2018-06-15T03:27:47.127Z,280.00
2018-06-15T03:28:47.113Z,296.00
2018-06-15T03:29:55.221Z,308.00
2018-06-15T03:30:47.147Z,308.00
2018-06-15T03:31:47.177Z,284.00
2018-06-15T03:34:26.727Z,288.00
2018-06-15T03:35:26.586Z,312.00
2018-06-15T03:36:26.639Z,332.00
2018-06-15T03:37:26.535Z,356.00
2018-06-15T03:38:26.557Z,388.00
2018-06-15T03:40:42.744Z,488.00
2018-06-15T03:41:42.808Z,520.00
2018-06-15T03:42:42.905Z,552.00
2018-06-15T03:43:42.848Z,576.00
2018-06-15T03:44:42.664Z,604.00
2018-06-15T03:45:42.600Z,652.00
2018-06-15T03:46:42.705Z,728.00
2018-06-15T03:47:53.611Z,800.00
2018-06-15T03:48:42.677Z,864.00
2018-06-15T03:51:02.433Z,944.00
2018-06-15T03:53:34.706Z,1032.00
2018-06-15T03:54:34.674Z,1060.00
2018-06-15T03:56:45.919Z,1292.00
2018-06-15T03:57:45.966Z,1436.00
2018-06-15T03:58:45.909Z,1536.00
2018-06-15T03:59:45.993Z,1616.00
2018-06-15T04:01:57.327Z,1736.00
2018-06-15T04:02:57.301Z,1880.00
2018-06-15T04:05:13.800Z,1900.00
2018-06-15T04:06:13.998Z,1812.00
2018-06-15T04:07:14.004Z,1852.00
2018-06-15T04:09:25.150Z,2096.00
2018-06-15T04:10:24.954Z,2196.00
2018-06-15T04:11:25.198Z,2264.00
2018-06-15T04:12:25.092Z,2276.00
2018-06-15T04:14:36.289Z,2424.00
2018-06-15T04:15:36.176Z,2576.00
2018-06-15T04:16:36.072Z,2712.00
2018-06-15T04:17:36.124Z,2752.00
2018-06-15T04:18:36.024Z,2756.00
2018-06-15T04:19:36.001Z,2800.00
2018-06-15T04:20:36.022Z,2876.00
2018-06-15T04:21:35.966Z,2968.00
2018-06-15T04:22:35.972Z,3024.00
2018-06-15T04:23:36.037Z,3012.00
2018-06-15T04:24:36.127Z,2984.00
2018-06-15T04:26:46.799Z,2968.00
2018-06-15T04:27:46.690Z,2964.00
2018-06-15T04:28:46.904Z,3012.00
2018-06-15T04:29:46.613Z,3152.00
2018-06-15T04:30:46.634Z,3316.00
2018-06-15T04:33:04.265Z,3632.00
2018-06-15T04:34:04.086Z,3764.00
2018-06-15T04:35:11.918Z,3920.00
2018-06-15T04:37:23.742Z,4008.00
2018-06-15T04:39:33.269Z,4052.00
2018-06-15T04:41:42.949Z,4424.00
2018-06-15T04:42:42.834Z,4480.00
2018-06-15T04:43:42.909Z,4504.00
2018-06-15T04:45:53.540Z,4528.00
2018-06-15T04:48:03.824Z,4428.00
2018-06-15T04:49:03.838Z,4452.00
2018-06-15T04:50:03.886Z,4340.00
2018-06-15T04:52:20.129Z,3944.00
2018-06-15T04:53:19.949Z,3992.00
2018-06-15T04:54:19.931Z,4204.00
2018-06-15T04:56:30.727Z,4756.00
2018-06-15T04:57:30.682Z,4908.00
2018-06-15T04:58:30.722Z,5204.00
2018-06-15T04:59:30.556Z,5552.00
2018-06-15T05:00:30.539Z,5900.00
2018-06-15T05:01:30.535Z,6220.00
2018-06-15T05:02:44.018Z,6464.00
2018-06-15T05:03:30.521Z,6616.00
2018-06-15T05:04:30.769Z,6620.00
2018-06-15T05:05:38.350Z,6512.00
2018-06-15T05:06:39.589Z,6456.00
2018-06-15T05:07:30.613Z,6296.00
2018-06-15T05:08:30.534Z,6152.00
2018-06-15T05:09:30.598Z,6044.00
2018-06-15T05:10:30.518Z,6140.00
2018-06-15T05:11:30.417Z,6292.00
2018-06-15T05:12:30.431Z,6472.00
2018-06-15T05:13:30.427Z,6412.00
2018-06-15T05:14:30.666Z,6608.00
2018-06-15T05:15:30.385Z,6700.00
2018-06-15T05:17:48.038Z,6596.00
2018-06-15T05:18:48.002Z,7224.00
2018-06-15T05:19:48.347Z,7908.00
2018-06-15T05:20:47.945Z,8600.00
2018-06-15T05:21:47.955Z,8596.00
2018-06-15T05:22:47.870Z,8200.00
2018-06-15T05:23:47.924Z,7616.00
2018-06-15T05:24:47.848Z,6948.00
2018-06-15T05:25:47.984Z,6552.00
2018-06-15T05:26:47.857Z,6740.00
2018-06-15T05:27:47.826Z,7628.00
2018-06-15T05:28:47.836Z,8024.00
2018-06-15T05:29:47.804Z,8032.00
2018-06-15T05:30:47.800Z,8044.00
2018-06-15T05:31:47.899Z,7972.00
2018-06-15T05:32:47.759Z,7972.00
2018-06-15T05:33:47.743Z,7820.00
2018-06-15T05:34:47.740Z,8256.00
2018-06-15T05:35:47.782Z,8072.00
2018-06-15T05:36:47.786Z,8144.00
2018-06-15T05:37:47.793Z,8604.00
2018-06-15T13:59:10.409Z,89024.00
2018-06-15T14:00:10.128Z,89248.00
2018-06-15T14:01:10.438Z,86336.00
2018-06-15T14:02:09.907Z,82464.00
2018-06-15T14:04:22.981Z,88992.00
2018-06-15T14:05:22.947Z,88448.00
2018-06-15T14:07:42.664Z,87808.00
2018-06-15T14:08:42.528Z,87136.00
2018-06-15T14:09:42.798Z,87136.00
2018-06-15T14:11:54.041Z,88704.00
2018-06-15T14:14:15.389Z,93664.00
2018-06-15T14:15:15.561Z,87840.00
2018-06-15T14:16:26.811Z,22976.00
2018-06-15T14:17:17.920Z,22432.00
2018-06-15T14:19:26.106Z,64032.00
2018-06-15T14:20:25.877Z,84960.00
2018-06-15T14:21:33.575Z,86304.00
2018-06-15T14:22:33.850Z,84864.00
2018-06-15T14:23:26.048Z,83264.00
2018-06-15T14:24:25.902Z,84128.00
2018-06-15T14:25:26.041Z,82560.00
2018-06-15T14:26:25.859Z,82016.00
2018-06-15T14:27:25.845Z,29792.00
2018-06-15T14:28:25.805Z,81952.00
2018-06-15T14:29:25.785Z,78112.00
2018-06-15T14:30:25.830Z,19168.00
2018-06-15T14:31:25.822Z,15740.00
2018-06-15T14:32:25.797Z,14404.00
2018-06-15T14:33:25.873Z,13588.00
2018-06-15T14:34:25.776Z,13556.00
2018-06-15T14:36:49.709Z,13712.00
2018-06-15T14:39:16.252Z,34752.00
2018-06-15T14:41:27.094Z,19904.00
2018-06-15T14:42:26.644Z,76544.00
2018-06-15T14:43:35.581Z,83456.00
2018-06-15T14:44:37.554Z,83968.00
2018-06-15T14:45:27.030Z,86528.00
2018-06-15T14:46:27.305Z,49216.00
2018-06-15T14:48:43.233Z,18048.00
2018-06-15T14:50:55.496Z,18016.00
2018-06-15T14:51:55.597Z,16220.00
2018-06-15T14:52:57.169Z,15532.00
2018-06-15T14:53:53.776Z,14812.00
2018-06-15T14:54:53.753Z,14408.00
2018-06-15T14:55:53.781Z,14244.00
2018-06-15T14:56:53.726Z,13596.00
2018-06-15T14:57:53.734Z,13056.00
2018-06-15T14:58:53.869Z,13248.00
2018-06-15T14:59:53.693Z,13276.00
2018-06-15T15:00:53.771Z,12964.00
2018-06-15T15:01:53.824Z,13184.00
2018-06-15T15:02:53.641Z,13740.00
2018-06-15T15:05:22.712Z,13784.00
2018-06-15T15:06:22.119Z,13712.00
2018-06-15T15:07:22.752Z,13856.00
2018-06-15T15:08:22.002Z,14392.00
2018-06-15T15:09:21.979Z,14728.00
2018-06-15T15:10:21.905Z,20096.00
2018-06-15T15:11:22.048Z,17920.00
2018-06-15T15:12:22.373Z,17056.00
2018-06-15T15:13:21.876Z,18496.00
2018-06-15T15:14:21.865Z,20032.00
2018-06-15T15:15:22.186Z,20864.00
2018-06-15T15:16:21.908Z,20928.00
2018-06-15T15:17:24.060Z,21312.00
2018-06-15T15:18:24.794Z,21696.00
2018-06-15T15:19:21.893Z,21824.00
2018-06-15T15:20:21.877Z,22432.00
2018-06-15T15:21:21.865Z,22944.00
2018-06-15T15:22:21.835Z,26816.00
2018-06-15T15:23:21.898Z,43744.00
2018-06-15T15:24:21.847Z,32864.00
2018-06-15T15:25:21.783Z,29792.00
2018-06-15T15:26:21.760Z,27808.00
2018-06-15T15:27:21.751Z,22688.00
2018-06-15T15:28:21.911Z,22624.00
2018-06-15T15:29:21.745Z,22240.00
2018-06-15T15:30:22.017Z,21376.00
2018-06-15T15:31:21.798Z,21152.00
2018-06-15T15:32:21.700Z,20928.00
2018-06-15T15:33:21.874Z,30144.00
2018-06-15T15:34:22.969Z,29056.00
2018-06-15T15:35:21.676Z,26464.00
2018-06-15T15:36:21.740Z,23872.00
2018-06-15T15:37:21.757Z,24000.00
2018-06-15T15:38:21.837Z,23072.00
2018-06-15T15:39:21.864Z,22144.00
2018-06-15T15:40:21.700Z,19904.00
2018-06-15T15:41:21.809Z,19360.00
2018-06-15T15:42:21.868Z,18624.00
2018-06-15T15:43:21.627Z,19296.00
2018-06-15T15:44:21.571Z,21664.00
2018-06-15T15:45:21.815Z,24832.00
2018-06-15T15:46:21.667Z,23328.00
2018-06-15T15:47:21.796Z,24640.00
2018-06-15T15:48:21.572Z,25728.00
2018-06-15T15:49:21.997Z,29728.00
2018-06-15T15:50:21.658Z,31904.00
2018-06-15T15:51:21.605Z,32864.00
2018-06-15T15:52:21.494Z,33824.00
2018-06-15T15:53:21.532Z,35904.00
2018-06-15T15:54:21.827Z,37216.00
2018-06-15T15:55:21.547Z,34784.00
2018-06-15T15:56:21.600Z,36704.00
2018-06-15T15:57:21.556Z,33792.00
2018-06-15T15:58:21.503Z,36064.00
2018-06-15T15:59:21.434Z,44832.00
2018-06-15T16:00:21.431Z,50080.00
2018-06-15T16:01:21.408Z,54016.00
2018-06-15T16:02:21.519Z,56000.00
2018-06-15T16:03:21.495Z,56832.00
2018-06-15T16:04:21.397Z,56864.00
2018-06-15T16:05:21.450Z,56704.00
2018-06-15T16:06:21.631Z,32064.00
2018-06-15T16:07:21.467Z,59328.00
2018-06-15T16:08:31.927Z,58144.00
2018-06-15T16:09:22.725Z,58400.00
2018-06-15T16:11:40.807Z,47424.00
2018-06-15T16:12:40.402Z,49824.00
2018-06-15T16:13:39.578Z,52352.00
2018-06-15T16:15:58.292Z,53184.00
2018-06-15T16:18:11.162Z,53184.00
2018-06-15T16:20:20.221Z,52032.00
2018-06-15T16:21:20.045Z,51584.00
2018-06-15T16:22:19.920Z,50400.00
2018-06-15T16:24:54.400Z,49376.00
2018-06-15T16:27:05.483Z,44640.00
2018-06-15T16:29:23.815Z,39456.00
2018-06-15T16:30:27.413Z,37120.00
2018-06-15T16:31:29.165Z,36032.00
2018-06-15T16:32:27.484Z,36256.00
2018-06-15T16:33:30.362Z,19552.00
2018-06-15T16:34:23.464Z,20672.00
2018-06-15T16:35:23.449Z,32320.00
2018-06-15T16:36:23.017Z,16300.00
2018-06-15T16:37:22.684Z,17568.00
2018-06-15T16:38:27.495Z,15108.00
2018-06-15T16:39:22.470Z,14280.00
2018-06-15T16:40:27.255Z,13648.00
2018-06-15T16:42:54.139Z,12664.00
2018-06-15T16:43:57.203Z,12236.00
2018-06-15T16:44:54.258Z,12028.00
2018-06-15T16:45:52.805Z,12188.00
2018-06-15T16:48:43.871Z,22432.00
2018-06-15T16:49:42.570Z,18688.00
2018-06-15T16:50:42.404Z,16384.00
2018-06-15T16:51:42.415Z,19264.00
2018-06-15T16:52:43.002Z,21568.00
2018-06-15T16:55:27.563Z,26688.00
2018-06-15T16:56:25.257Z,25216.00
2018-06-15T16:57:23.070Z,25536.00
2018-06-15T16:58:22.908Z,15492.00
2018-06-15T17:00:57.482Z,30720.00
2018-06-15T17:01:55.564Z,28288.00
2018-06-15T17:02:55.031Z,20896.00
2018-06-15T17:03:54.982Z,21568.00
2018-06-15T17:04:56.238Z,22304.00
2018-06-15T17:07:13.509Z,23456.00
2018-06-15T17:08:13.370Z,23872.00
2018-06-15T17:10:55.825Z,18432.00
2018-06-15T17:11:55.554Z,33120.00
2018-06-15T17:12:55.713Z,31008.00
2018-06-15T17:13:55.452Z,29952.00
2018-06-15T17:14:55.415Z,28928.00
2018-06-15T17:15:55.397Z,21920.00
2018-06-15T17:16:55.313Z,17184.00
2018-06-15T17:17:55.328Z,16256.00
2018-06-15T17:18:55.302Z,13960.00
2018-06-15T17:19:55.327Z,13576.00
2018-06-15T17:20:55.535Z,17664.00
2018-06-15T17:22:06.275Z,22336.00
2018-06-15T17:22:55.390Z,23136.00
2018-06-15T17:23:55.384Z,23136.00
2018-06-15T17:24:55.701Z,21920.00
2018-06-15T17:25:55.337Z,21280.00
2018-06-15T17:26:55.245Z,21792.00
2018-06-15T17:27:55.294Z,18240.00
2018-06-15T17:28:55.306Z,13660.00
2018-06-15T17:29:55.211Z,16416.00
2018-06-15T17:30:55.213Z,18624.00
2018-06-15T17:31:55.211Z,18272.00
2018-06-15T17:32:55.247Z,9016.00
2018-06-15T17:33:55.156Z,7872.00
2018-06-15T17:34:55.226Z,11112.00
2018-06-15T17:35:55.227Z,14208.00
2018-06-15T17:36:55.150Z,18720.00
2018-06-15T17:37:55.317Z,17792.00
2018-06-15T17:38:55.163Z,19168.00
2018-06-15T17:39:55.243Z,18464.00
2018-06-15T17:40:55.160Z,18080.00
2018-06-15T17:41:55.077Z,14528.00
2018-06-15T17:42:55.151Z,16832.00
2018-06-15T17:43:55.029Z,16928.00
2018-06-15T17:44:55.037Z,17984.00
2018-06-15T17:45:55.051Z,18144.00
2018-06-15T17:46:55.107Z,17184.00
2018-06-15T17:47:55.004Z,13440.00
2018-06-15T17:48:54.979Z,9644.00
2018-06-15T17:49:54.966Z,8668.00
2018-06-15T17:50:55.022Z,8352.00
2018-06-15T17:51:54.977Z,8112.00
2018-06-15T17:52:54.955Z,8012.00
2018-06-15T17:53:54.967Z,7992.00
2018-06-15T17:54:54.952Z,8092.00
2018-06-15T17:55:54.937Z,8200.00
2018-06-15T17:56:54.969Z,8116.00
2018-06-15T17:57:54.993Z,7724.00
2018-06-15T17:58:54.997Z,7168.00
2018-06-15T17:59:54.957Z,6580.00
2018-06-15T18:00:54.889Z,5936.00
2018-06-15T18:02:30.546Z,5384.00
2018-06-15T18:02:54.968Z,5016.00
2018-06-15T18:03:55.199Z,4672.00
2018-06-15T18:05:03.775Z,4296.00
2018-06-15T18:05:55.332Z,4072.00
2018-06-15T18:07:04.397Z,3760.00
2018-06-15T18:07:54.942Z,3452.00
2018-06-15T18:08:55.394Z,3260.00
2018-06-15T18:09:54.863Z,3092.00
2018-06-15T18:10:55.174Z,2968.00
2018-06-15T18:11:54.868Z,2876.00
2018-06-15T18:13:03.673Z,2812.00
2018-06-15T18:13:55.902Z,2724.00
2018-06-15T18:14:55.848Z,2676.00
2018-06-15T18:15:54.905Z,2736.00
2018-06-15T18:16:54.797Z,2824.00
2018-06-15T18:17:54.831Z,2804.00
2018-06-15T18:18:54.703Z,2692.00
2018-06-15T18:19:54.743Z,2592.00
2018-06-15T18:20:54.881Z,2532.00
2018-06-15T18:21:54.860Z,2500.00
2018-06-15T18:22:54.656Z,2452.00
2018-06-15T18:23:54.754Z,2364.00
2018-06-15T18:24:54.753Z,2260.00
2018-06-15T18:25:55.241Z,2164.00
2018-06-15T18:26:54.658Z,2076.00
2018-06-15T18:29:10.964Z,2028.00
2018-06-15T18:31:21.478Z,2012.00
2018-06-15T18:32:22.306Z,1992.00
2018-06-15T18:33:30.141Z,1992.00
2018-06-15T18:34:21.465Z,2008.00
2018-06-15T18:36:33.104Z,2128.00
2018-06-15T18:38:43.536Z,2292.00
2018-06-15T18:39:43.537Z,2368.00
2018-06-15T18:42:08.067Z,2484.00
2018-06-15T18:43:08.134Z,2424.00
2018-06-15T18:44:08.121Z,2328.00
2018-06-15T18:45:08.027Z,2236.00
2018-06-15T18:46:07.948Z,2152.00
2018-06-15T18:47:07.897Z,2052.00
2018-06-15T18:48:07.941Z,1928.00
2018-06-15T18:51:40.188Z,1592.00
2018-06-15T18:54:03.691Z,1504.00
2018-06-15T18:55:03.656Z,1488.00
2018-06-15T18:56:03.535Z,1492.00
2018-06-15T18:57:11.862Z,1512.00
2018-06-15T18:58:04.614Z,1548.00
2018-06-15T19:00:47.895Z,1696.00
2018-06-15T19:01:47.150Z,1756.00
2018-06-15T19:02:47.200Z,1784.00
2018-06-15T19:03:47.032Z,1752.00
2018-06-15T19:04:56.198Z,1688.00
2018-06-15T19:06:29.663Z,1604.00
2018-06-15T19:06:47.068Z,1536.00
2018-06-15T19:09:03.374Z,1472.00
2018-06-15T19:11:23.844Z,1420.00
2018-06-15T19:13:33.365Z,1424.00
2018-06-15T19:14:33.491Z,1448.00
2018-06-15T19:16:42.993Z,1540.00
2018-06-15T19:17:42.829Z,1556.00
2018-06-15T19:18:43.239Z,1548.00
2018-06-15T19:19:42.811Z,1520.00
2018-06-15T19:20:42.710Z,1496.00
2018-06-15T19:21:42.676Z,1456.00
2018-06-15T19:22:42.699Z,1396.00
2018-06-15T19:23:42.691Z,1304.00
2018-06-15T19:24:42.686Z,1224.00
2018-06-15T19:25:42.910Z,1176.00
2018-06-15T19:27:53.315Z,1040.00
2018-06-15T19:28:53.348Z,944.00
2018-06-15T19:29:53.817Z,848.00
2018-06-15T19:32:03.634Z,704.00
2018-06-15T19:33:03.712Z,644.00
2018-06-15T19:34:03.559Z,588.00
2018-06-15T19:35:54.644Z,512.00
2018-06-15T19:37:02.862Z,480.00
2018-06-15T19:37:54.846Z,448.00
2018-06-15T19:38:54.418Z,416.00
2018-06-15T19:39:54.676Z,384.00
2018-06-15T19:40:54.321Z,360.00
2018-06-15T19:41:54.182Z,336.00
2018-06-15T19:42:54.159Z,312.00
2018-06-15T19:43:54.125Z,292.00
2018-06-15T19:44:54.134Z,272.00
2018-06-15T19:45:54.106Z,256.00
2018-06-15T19:46:54.083Z,236.00
2018-06-15T19:47:54.064Z,220.00
2018-06-15T19:48:54.068Z,200.00
2018-06-15T19:49:54.064Z,180.00
2018-06-15T19:50:54.053Z,168.00
2018-06-15T19:51:54.147Z,156.00
2018-06-15T19:52:54.017Z,140.00
2018-06-15T19:53:54.006Z,128.00
2018-06-15T19:54:54.230Z,120.00
2018-06-15T19:55:54.038Z,108.00
2018-06-15T19:56:54.012Z,100.00
2018-06-15T19:57:53.990Z,84.00
2018-06-15T19:58:54.074Z,76.00
2018-06-15T19:59:53.939Z,72.00
2018-06-15T20:02:04.527Z,52.00
2018-06-15T20:03:04.892Z,48.00
2018-06-15T20:04:04.315Z,36.00
2018-06-15T20:05:04.263Z,36.00
2018-06-15T20:06:04.127Z,32.00
2018-06-15T20:07:04.209Z,28.00
2018-06-15T20:08:20.348Z,24.00
2018-06-15T20:09:04.537Z,20.00
2018-06-15T20:10:04.659Z,20.00
2018-06-15T20:11:04.182Z,16.00
2018-06-15T20:12:04.249Z,12.00
2018-06-15T20:13:13.164Z,12.00
2018-06-15T20:14:23.778Z,12.00
2018-06-15T20:15:08.246Z,12.00
2018-06-15T20:16:04.557Z,8.00
2018-06-15T20:17:04.039Z,8.00
2018-06-15T20:18:04.103Z,4.00
2018-06-15T20:19:04.237Z,8.00
2018-06-15T20:20:04.048Z,4.00
2018-06-15T20:21:04.044Z,8.00
2018-06-15T20:22:04.633Z,4.00
2018-06-15T20:23:04.039Z,4.00
2018-06-15T20:25:20.411Z,4.00
2018-06-15T20:26:34.305Z,4.00
2018-06-15T20:27:21.558Z,4.00
2018-06-15T20:28:32.941Z,4.00
2018-06-15T20:29:20.149Z,0.00
2018-06-15T20:30:20.289Z,0.00
2018-06-15T20:33:02.360Z,0.00
2018-06-15T20:33:29.611Z,0.00
2018-06-15T20:34:29.570Z,0.00
2018-06-15T20:35:29.462Z,0.00
2018-06-15T20:36:29.397Z,0.00
2018-06-15T20:37:29.408Z,0.00
2018-06-15T20:39:06.656Z,0.00
2018-06-15T20:39:29.376Z,0.00
2018-06-15T20:40:29.326Z,0.00
2018-06-15T20:41:29.412Z,0.00
2018-06-15T20:43:02.149Z,0.00
2018-06-15T20:43:29.438Z,0.00
2018-06-15T20:44:29.571Z,0.00
2018-06-15T20:45:29.727Z,0.00
2018-06-15T20:50:51.105Z,0.00
2018-06-15T20:51:50.945Z,0.00
2018-06-15T20:52:58.895Z,0.00
2018-06-15T20:53:52.744Z,0.00
2018-06-15T20:54:52.430Z,0.00
2018-06-15T20:55:50.965Z,0.00
2018-06-15T20:56:52.355Z,0.00
2018-06-15T20:57:50.913Z,0.00
2018-06-15T20:59:19.346Z,0.00
2018-06-15T20:59:50.739Z,0.00
2018-06-15T21:00:50.830Z,0.00
2018-06-15T21:01:50.692Z,0.00
2018-06-15T21:02:50.731Z,0.00
2018-06-15T21:03:51.147Z,0.00
2018-06-15T21:04:56.417Z,0.00
2018-06-15T21:06:15.709Z,0.00
2018-06-15T21:06:50.692Z,0.00
2018-06-15T21:07:50.659Z,0.00
2018-06-15T21:08:50.631Z,0.00
2018-06-15T21:09:52.080Z,0.00
2018-06-15T21:11:01.895Z,0.00
2018-06-15T21:11:50.800Z,0.00
2018-06-15T21:12:50.854Z,0.00
2018-06-15T21:13:51.361Z,0.00
2018-06-15T21:14:50.547Z,0.00
2018-06-15T21:15:50.892Z,0.00
2018-06-15T21:16:50.619Z,0.00
2018-06-15T21:17:50.537Z,0.00
2018-06-15T21:18:50.571Z,0.00
2018-06-15T21:21:56.374Z,0.00
2018-06-15T21:23:08.250Z,0.00
2018-06-15T21:23:56.954Z,0.00
2018-06-15T21:25:22.684Z,0.00
2018-06-15T21:26:08.009Z,0.00
2018-06-15T21:27:25.954Z,0.00
2018-06-15T21:27:56.444Z,0.00
2018-06-15T21:28:56.380Z,0.00
2018-06-15T21:29:56.123Z,0.00
2018-06-15T21:30:56.277Z,0.00
2018-06-15T21:32:03.203Z,0.00
2018-06-15T21:32:56.164Z,0.00
2018-06-15T21:33:56.151Z,0.00
2018-06-15T21:34:56.742Z,0.00
2018-06-15T21:35:58.028Z,0.00
2018-06-15T21:36:58.596Z,0.00
2018-06-15T21:37:56.169Z,0.00
2018-06-15T21:39:28.734Z,0.00
2018-06-15T21:39:55.981Z,0.00
2018-06-15T21:40:55.948Z,0.00
2018-06-15T21:41:56.494Z,0.00
2018-06-15T21:43:12.528Z,0.00
2018-06-15T21:43:55.971Z,0.00
2018-06-15T21:44:55.947Z,0.00
2018-06-15T21:45:55.898Z,0.00
2018-06-15T21:46:55.994Z,0.00
2018-06-15T21:47:57.150Z,0.00
2018-06-15T21:48:56.942Z,0.00
2018-06-15T21:49:55.874Z,0.00
2018-06-15T21:50:55.868Z,0.00
2018-06-15T21:51:57.042Z,0.00
2018-06-15T21:53:05.936Z,0.00
2018-06-15T21:53:56.277Z,0.00
2018-06-15T21:54:55.858Z,0.00
2018-06-15T21:55:55.877Z,0.00
2018-06-15T21:57:02.436Z,0.00
2018-06-15T21:57:57.025Z,0.00
2018-06-15T21:58:55.800Z,0.00
2018-06-15T21:59:55.835Z,0.00
2018-06-15T22:01:47.087Z,0.00
2018-06-15T22:02:46.908Z,0.00
2018-06-15T22:03:53.170Z,0.00
2018-06-15T22:04:46.712Z,0.00
2018-06-15T22:05:47.620Z,0.00
2018-06-15T22:06:46.707Z,0.00
2018-06-15T22:08:14.353Z,0.00
2018-06-15T22:08:47.095Z,0.00
2018-06-15T22:10:16.256Z,0.00
2018-06-15T22:10:46.632Z,0.00
2018-06-15T22:11:46.608Z,0.00
2018-06-15T22:13:14.244Z,0.00
2018-06-15T22:13:46.713Z,0.00
2018-06-15T22:14:46.687Z,0.00
2018-06-15T22:15:46.618Z,0.00
2018-06-15T22:16:46.629Z,0.00
2018-06-15T22:18:18.197Z,0.00
2018-06-15T22:18:47.138Z,0.00
2018-06-15T22:19:46.744Z,0.00
2018-06-15T22:23:33.756Z,0.00
2018-06-15T22:24:36.032Z,0.00
2018-06-15T22:25:46.788Z,0.00
2018-06-15T22:26:33.518Z,0.00
2018-06-15T22:28:48.997Z,0.00
2018-06-15T22:30:59.806Z,0.00
2018-06-15T22:31:59.785Z,0.00
2018-06-15T22:33:01.080Z,0.00
2018-06-15T22:34:01.360Z,0.00
2018-06-15T22:34:59.503Z,0.00
2018-06-15T22:35:59.593Z,0.00
2018-06-15T22:37:28.306Z,0.00
2018-06-15T22:37:59.747Z,0.00
2018-06-15T22:38:59.594Z,0.00
2018-06-15T22:40:00.163Z,0.00
2018-06-15T22:40:59.589Z,0.00
2018-06-15T22:41:59.496Z,0.00
2018-06-15T22:42:59.736Z,0.00
2018-06-15T22:43:59.531Z,0.00
2018-06-15T22:44:59.430Z,0.00
2018-06-15T22:45:59.464Z,0.00
2018-06-15T22:47:01.299Z,0.00
2018-06-15T22:48:00.002Z,0.00
2018-06-15T22:49:07.318Z,0.00
2018-06-15T22:50:06.696Z,0.00
2018-06-15T22:52:59.888Z,0.00
2018-06-15T22:54:36.365Z,0.00
2018-06-15T22:54:59.659Z,0.00
2018-06-15T22:55:59.826Z,0.00
2018-06-15T22:57:00.104Z,0.00
2018-06-15T22:57:59.734Z,0.00
2018-06-15T22:59:00.362Z,0.00
2018-06-15T23:00:00.972Z,0.00
2018-06-15T23:00:59.671Z,0.00
2018-06-15T23:01:59.628Z,0.00
2018-06-15T23:02:59.664Z,0.00
2018-06-15T23:04:00.280Z,0.00
2018-06-15T23:05:28.662Z,0.00
2018-06-15T23:06:00.332Z,0.00
2018-06-15T23:06:59.584Z,0.00
2018-06-15T23:08:00.160Z,0.00
2018-06-15T23:08:59.891Z,0.00
2018-06-15T23:11:20.284Z,0.00
2018-06-15T23:12:33.358Z,0.00
2018-06-15T23:13:20.124Z,0.00